KSKF/SKF METAR and TAF weather

Enter ICAO airport designator
Station Type Date Time Source
KSKF METAR 2022/12/08 11:56 UTC NOAA

KSKF 081156Z 18006KT 6SM BR BKN011 OVC018 22/21 A3013 RMK AO2A SLP198 T02150215 10219 20213 55002 $


Station Type Date Time Source
KSKF Decoded METAR 2022/12/08 11:56 UTC NOAA

Kelly Air Force Base, TX, United States (KSKF) 29-23N 098-35W
Dec 08, 2022 - 06:56 AM EST / 2022.12.08 1156 UTC
Wind: from the S (180 degrees) at 7 MPH (6 KT):0
Visibility: 6 mile(s):0
Sky conditions: overcast
Weather: mist
Temperature: 70.7 F (21.5 C)
Dew Point: 70.7 F (21.5 C)
Relative Humidity: 100%
Pressure (altimeter): 30.13 in. Hg (1020 hPa)
Pressure tendency: 0.01 inches (0.2 hPa) lower than three hours ago
ob: KSKF 081156Z 18006KT 6SM BR BKN011 OVC018 22/21 A3013 RMK AO2A SLP198 T02150215 10219 20213 55002
cycle: 12

Station Type Date Time Source
KSKF TAF 2022/12/08 10:03 UTC NOAA

TAF KSKF 081000Z 0810/0916 14009KT 8000 BR BKN012 BKN050 QNH3011INS
TEMPO 0812/0816 3200 -DZ BR OVC009
BECMG 0815/0816 17006KT 6000 BR SCT012 BKN050 QNH3015INS
BECMG 0817/0818 16012KT 9999 NSW SCT035 QNH3006INS
BECMG 0902/0903 14012KT 9999 BKN015 OVC035 QNH3010INS
BECMG 0905/0906 14005KT 8000 BR BKN015 OVC025 QNH3009INS
TEMPO 0912/0916 3200 BR OVC009 TX26/0821Z TN20/0813Z

Example: see airport list